sensor_id;sensor_type;location;lat;lon;timestamp;P1;durP1;ratioP1;P2;durP2;ratioP2
75005;SDS011;63553;51.814;4.600;2023-09-12T00:00:45;18.67;;;11.03;;
75005;SDS011;63553;51.814;4.600;2023-09-12T00:03:11;17.42;;;10.63;;
75005;SDS011;63553;51.814;4.600;2023-09-12T00:05:36;18.73;;;11.30;;
75005;SDS011;63553;51.814;4.600;2023-09-12T00:08:02;16.50;;;11.20;;
75005;SDS011;63553;51.814;4.600;2023-09-12T00:10:28;18.52;;;11.43;;
75005;SDS011;63553;51.814;4.600;2023-09-12T00:12:54;15.55;;;10.23;;
75005;SDS011;63553;51.814;4.600;2023-09-12T00:15:20;12.10;;;8.45;;
75005;SDS011;63553;51.814;4.600;2023-09-12T00:17:45;15.63;;;9.85;;
75005;SDS011;63553;51.814;4.600;2023-09-12T00:20:11;14.60;;;9.07;;
75005;SDS011;63553;51.814;4.600;2023-09-12T00:22:36;11.13;;;7.82;;
75005;SDS011;63553;51.814;4.600;2023-09-12T00:25:02;17.42;;;11.20;;
75005;SDS011;63553;51.814;4.600;2023-09-12T00:27:28;15.30;;;10.20;;
75005;SDS011;63553;51.814;4.600;2023-09-12T00:29:53;18.05;;;10.77;;
75005;SDS011;63553;51.814;4.600;2023-09-12T00:32:18;15.93;;;9.15;;
75005;SDS011;63553;51.814;4.600;2023-09-12T00:34:44;16.13;;;10.67;;
75005;SDS011;63553;51.814;4.600;2023-09-12T00:37:09;17.20;;;10.60;;
75005;SDS011;63553;51.814;4.600;2023-09-12T00:39:35;9.90;;;7.32;;
75005;SDS011;63553;51.814;4.600;2023-09-12T00:42:00;4.65;;;4.25;;
75005;SDS011;63553;51.814;4.600;2023-09-12T00:44:25;12.98;;;8.77;;
75005;SDS011;63553;51.814;4.600;2023-09-12T00:46:51;12.73;;;9.25;;
75005;SDS011;63553;51.814;4.600;2023-09-12T00:49:19;17.10;;;10.48;;
75005;SDS011;63553;51.814;4.600;2023-09-12T00:51:45;13.55;;;8.68;;
75005;SDS011;63553;51.814;4.600;2023-09-12T00:54:11;16.40;;;10.57;;
75005;SDS011;63553;51.814;4.600;2023-09-12T00:56:36;13.70;;;9.30;;
75005;SDS011;63553;51.814;4.600;2023-09-12T00:59:02;16.38;;;10.48;;
75005;SDS011;63553;51.814;4.600;2023-09-12T01:01:28;20.45;;;9.65;;
75005;SDS011;63553;51.814;4.600;2023-09-12T01:03:54;16.10;;;10.77;;
75005;SDS011;63553;51.814;4.600;2023-09-12T01:06:21;17.10;;;10.35;;
75005;SDS011;63553;51.814;4.600;2023-09-12T01:08:50;23.42;;;11.13;;
75005;SDS011;63553;51.814;4.600;2023-09-12T01:11:16;15.90;;;9.23;;
75005;SDS011;63553;51.814;4.600;2023-09-12T01:13:42;17.30;;;10.43;;
75005;SDS011;63553;51.814;4.600;2023-09-12T01:16:07;13.63;;;9.35;;
75005;SDS011;63553;51.814;4.600;2023-09-12T01:18:32;15.63;;;9.88;;
75005;SDS011;63553;51.814;4.600;2023-09-12T01:21:09;17.13;;;10.43;;
75005;SDS011;63553;51.814;4.600;2023-09-12T01:23:44;18.17;;;11.52;;
75005;SDS011;63553;51.814;4.600;2023-09-12T01:28:47;15.97;;;10.00;;
75005;SDS011;63553;51.814;4.600;2023-09-12T01:31:15;9.20;;;6.25;;
75005;SDS011;63553;51.814;4.600;2023-09-12T01:33:42;15.70;;;9.10;;
75005;SDS011;63553;51.814;4.600;2023-09-12T01:36:09;19.43;;;11.33;;
75005;SDS011;63553;51.814;4.600;2023-09-12T01:38:36;15.25;;;8.68;;
75005;SDS011;63553;51.814;4.600;2023-09-12T01:41:02;6.57;;;5.85;;
75005;SDS011;63553;51.814;4.600;2023-09-12T01:43:27;14.95;;;9.10;;
75005;SDS011;63553;51.814;4.600;2023-09-12T01:45:57;12.35;;;8.63;;
75005;SDS011;63553;51.814;4.600;2023-09-12T01:48:25;13.25;;;8.25;;
75005;SDS011;63553;51.814;4.600;2023-09-12T01:50:58;9.68;;;6.85;;
75005;SDS011;63553;51.814;4.600;2023-09-12T01:53:25;11.43;;;7.75;;
75005;SDS011;63553;51.814;4.600;2023-09-12T01:55:51;13.13;;;7.63;;
75005;SDS011;63553;51.814;4.600;2023-09-12T01:58:17;12.43;;;7.38;;
75005;SDS011;63553;51.814;4.600;2023-09-12T02:00:42;14.35;;;8.73;;
75005;SDS011;63553;51.814;4.600;2023-09-12T02:03:08;6.27;;;4.93;;
75005;SDS011;63553;51.814;4.600;2023-09-12T02:05:33;12.90;;;6.88;;
75005;SDS011;63553;51.814;4.600;2023-09-12T02:07:59;7.65;;;5.07;;
75005;SDS011;63553;51.814;4.600;2023-09-12T02:10:27;18.15;;;8.52;;
75005;SDS011;63553;51.814;4.600;2023-09-12T02:12:53;12.55;;;7.97;;
75005;SDS011;63553;51.814;4.600;2023-09-12T02:15:18;12.47;;;7.87;;
75005;SDS011;63553;51.814;4.600;2023-09-12T02:17:43;10.77;;;6.00;;
75005;SDS011;63553;51.814;4.600;2023-09-12T02:20:09;13.13;;;7.90;;
75005;SDS011;63553;51.814;4.600;2023-09-12T02:22:35;11.45;;;7.75;;
75005;SDS011;63553;51.814;4.600;2023-09-12T02:25:01;14.50;;;8.55;;
75005;SDS011;63553;51.814;4.600;2023-09-12T02:27:27;9.32;;;6.47;;
75005;SDS011;63553;51.814;4.600;2023-09-12T02:29:53;12.17;;;7.17;;
75005;SDS011;63553;51.814;4.600;2023-09-12T02:32:18;12.07;;;7.77;;
75005;SDS011;63553;51.814;4.600;2023-09-12T02:34:43;11.60;;;7.67;;
75005;SDS011;63553;51.814;4.600;2023-09-12T02:37:09;11.37;;;8.37;;
75005;SDS011;63553;51.814;4.600;2023-09-12T02:39:34;9.23;;;6.65;;
75005;SDS011;63553;51.814;4.600;2023-09-12T02:41:59;10.33;;;7.03;;
75005;SDS011;63553;51.814;4.600;2023-09-12T02:44:25;8.13;;;6.17;;
75005;SDS011;63553;51.814;4.600;2023-09-12T02:46:50;9.50;;;7.30;;
75005;SDS011;63553;51.814;4.600;2023-09-12T02:49:16;12.93;;;6.50;;
75005;SDS011;63553;51.814;4.600;2023-09-12T02:51:41;10.55;;;6.38;;
75005;SDS011;63553;51.814;4.600;2023-09-12T02:54:07;10.93;;;6.78;;
75005;SDS011;63553;51.814;4.600;2023-09-12T02:56:32;7.03;;;4.90;;
75005;SDS011;63553;51.814;4.600;2023-09-12T02:58:57;8.52;;;5.68;;
75005;SDS011;63553;51.814;4.600;2023-09-12T03:01:23;9.27;;;5.77;;
75005;SDS011;63553;51.814;4.600;2023-09-12T03:03:50;12.18;;;7.13;;
75005;SDS011;63553;51.814;4.600;2023-09-12T03:06:16;9.57;;;5.88;;
75005;SDS011;63553;51.814;4.600;2023-09-12T03:08:43;13.55;;;8.38;;
75005;SDS011;63553;51.814;4.600;2023-09-12T03:11:08;11.15;;;7.68;;
75005;SDS011;63553;51.814;4.600;2023-09-12T03:13:34;12.10;;;7.53;;
75005;SDS011;63553;51.814;4.600;2023-09-12T03:16:01;14.15;;;7.63;;
75005;SDS011;63553;51.814;4.600;2023-09-12T03:18:26;15.10;;;8.07;;
75005;SDS011;63553;51.814;4.600;2023-09-12T03:20:52;17.70;;;10.20;;
75005;SDS011;63553;51.814;4.600;2023-09-12T03:23:18;8.10;;;4.78;;
75005;SDS011;63553;51.814;4.600;2023-09-12T03:25:44;13.40;;;8.13;;
75005;SDS011;63553;51.814;4.600;2023-09-12T03:28:10;19.20;;;10.52;;
75005;SDS011;63553;51.814;4.600;2023-09-12T03:30:35;15.27;;;7.80;;
75005;SDS011;63553;51.814;4.600;2023-09-12T03:33:02;18.05;;;11.07;;
75005;SDS011;63553;51.814;4.600;2023-09-12T03:35:29;18.15;;;11.38;;
75005;SDS011;63553;51.814;4.600;2023-09-12T03:37:56;17.25;;;9.98;;
75005;SDS011;63553;51.814;4.600;2023-09-12T03:40:21;20.55;;;12.05;;
75005;SDS011;63553;51.814;4.600;2023-09-12T03:42:47;19.98;;;11.05;;
75005;SDS011;63553;51.814;4.600;2023-09-12T03:45:12;22.60;;;12.13;;
75005;SDS011;63553;51.814;4.600;2023-09-12T03:47:37;12.67;;;7.27;;
75005;SDS011;63553;51.814;4.600;2023-09-12T03:50:03;12.55;;;6.13;;
75005;SDS011;63553;51.814;4.600;2023-09-12T03:52:29;15.80;;;8.70;;
75005;SDS011;63553;51.814;4.600;2023-09-12T03:54:54;11.10;;;6.88;;
75005;SDS011;63553;51.814;4.600;2023-09-12T03:57:20;22.10;;;10.90;;
75005;SDS011;63553;51.814;4.600;2023-09-12T03:59:45;10.13;;;5.50;;
75005;SDS011;63553;51.814;4.600;2023-09-12T04:02:11;25.20;;;13.27;;
75005;SDS011;63553;51.814;4.600;2023-09-12T04:04:37;18.67;;;9.88;;
75005;SDS011;63553;51.814;4.600;2023-09-12T04:07:03;15.63;;;7.68;;
75005;SDS011;63553;51.814;4.600;2023-09-12T04:09:28;32.47;;;15.73;;
75005;SDS011;63553;51.814;4.600;2023-09-12T04:11:54;30.98;;;15.23;;
75005;SDS011;63553;51.814;4.600;2023-09-12T04:14:20;31.95;;;15.07;;
75005;SDS011;63553;51.814;4.600;2023-09-12T04:16:46;31.42;;;13.50;;
75005;SDS011;63553;51.814;4.600;2023-09-12T04:19:11;66.07;;;17.60;;
75005;SDS011;63553;51.814;4.600;2023-09-12T04:21:38;37.72;;;16.75;;
75005;SDS011;63553;51.814;4.600;2023-09-12T04:24:03;40.93;;;17.70;;
75005;SDS011;63553;51.814;4.600;2023-09-12T04:26:29;48.35;;;17.45;;
75005;SDS011;63553;51.814;4.600;2023-09-12T04:28:55;41.22;;;19.63;;
75005;SDS011;63553;51.814;4.600;2023-09-12T04:31:20;46.40;;;20.60;;
75005;SDS011;63553;51.814;4.600;2023-09-12T04:33:45;38.00;;;17.50;;
75005;SDS011;63553;51.814;4.600;2023-09-12T04:36:11;29.55;;;14.15;;
75005;SDS011;63553;51.814;4.600;2023-09-12T04:38:36;36.53;;;15.15;;
75005;SDS011;63553;51.814;4.600;2023-09-12T04:41:02;30.88;;;13.25;;
75005;SDS011;63553;51.814;4.600;2023-09-12T04:43:30;39.47;;;15.88;;
75005;SDS011;63553;51.814;4.600;2023-09-12T04:45:56;18.15;;;8.98;;
75005;SDS011;63553;51.814;4.600;2023-09-12T04:48:21;34.70;;;14.20;;
75005;SDS011;63553;51.814;4.600;2023-09-12T04:50:47;43.05;;;18.40;;
75005;SDS011;63553;51.814;4.600;2023-09-12T04:53:13;22.98;;;10.35;;
75005;SDS011;63553;51.814;4.600;2023-09-12T04:55:38;39.08;;;17.15;;
75005;SDS011;63553;51.814;4.600;2023-09-12T04:58:04;37.33;;;15.57;;
75005;SDS011;63553;51.814;4.600;2023-09-12T05:00:30;44.15;;;18.95;;
75005;SDS011;63553;51.814;4.600;2023-09-12T05:02:56;46.85;;;19.88;;
75005;SDS011;63553;51.814;4.600;2023-09-12T05:05:21;37.35;;;17.27;;
75005;SDS011;63553;51.814;4.600;2023-09-12T05:07:47;34.25;;;14.02;;
75005;SDS011;63553;51.814;4.600;2023-09-12T05:10:12;37.80;;;16.65;;
75005;SDS011;63553;51.814;4.600;2023-09-12T05:12:38;33.42;;;15.30;;
75005;SDS011;63553;51.814;4.600;2023-09-12T05:15:03;37.78;;;17.60;;
75005;SDS011;63553;51.814;4.600;2023-09-12T05:17:29;32.85;;;15.52;;
75005;SDS011;63553;51.814;4.600;2023-09-12T05:19:54;25.30;;;11.98;;
75005;SDS011;63553;51.814;4.600;2023-09-12T05:22:20;29.97;;;12.67;;
75005;SDS011;63553;51.814;4.600;2023-09-12T05:24:45;34.83;;;15.03;;
75005;SDS011;63553;51.814;4.600;2023-09-12T05:27:11;35.78;;;16.40;;
75005;SDS011;63553;51.814;4.600;2023-09-12T05:29:37;34.30;;;15.35;;
75005;SDS011;63553;51.814;4.600;2023-09-12T05:32:02;17.00;;;8.77;;
75005;SDS011;63553;51.814;4.600;2023-09-12T05:34:28;39.08;;;17.88;;
75005;SDS011;63553;51.814;4.600;2023-09-12T05:36:54;36.27;;;15.60;;
75005;SDS011;63553;51.814;4.600;2023-09-12T05:39:19;41.92;;;17.95;;
75005;SDS011;63553;51.814;4.600;2023-09-12T05:41:45;24.40;;;12.73;;
75005;SDS011;63553;51.814;4.600;2023-09-12T05:44:10;36.45;;;17.25;;
75005;SDS011;63553;51.814;4.600;2023-09-12T05:46:38;37.33;;;17.35;;
75005;SDS011;63553;51.814;4.600;2023-09-12T05:49:03;34.50;;;16.58;;
75005;SDS011;63553;51.814;4.600;2023-09-12T05:51:29;27.92;;;13.48;;
75005;SDS011;63553;51.814;4.600;2023-09-12T05:53:54;34.63;;;16.67;;
75005;SDS011;63553;51.814;4.600;2023-09-12T05:56:20;10.75;;;6.82;;
75005;SDS011;63553;51.814;4.600;2023-09-12T05:58:45;7.88;;;5.30;;
75005;SDS011;63553;51.814;4.600;2023-09-12T06:01:11;17.35;;;8.90;;
75005;SDS011;63553;51.814;4.600;2023-09-12T06:03:36;18.50;;;10.27;;
75005;SDS011;63553;51.814;4.600;2023-09-12T06:06:02;83.85;;;22.73;;
75005;SDS011;63553;51.814;4.600;2023-09-12T06:08:28;42.90;;;17.63;;
75005;SDS011;63553;51.814;4.600;2023-09-12T06:10:53;38.15;;;16.90;;
75005;SDS011;63553;51.814;4.600;2023-09-12T06:13:20;48.38;;;18.85;;
75005;SDS011;63553;51.814;4.600;2023-09-12T06:15:45;24.58;;;13.85;;
75005;SDS011;63553;51.814;4.600;2023-09-12T06:18:11;21.33;;;12.27;;
75005;SDS011;63553;51.814;4.600;2023-09-12T06:20:36;24.23;;;13.98;;
75005;SDS011;63553;51.814;4.600;2023-09-12T06:23:02;20.55;;;12.25;;
75005;SDS011;63553;51.814;4.600;2023-09-12T06:25:28;30.67;;;17.08;;
75005;SDS011;63553;51.814;4.600;2023-09-12T06:27:54;28.05;;;14.20;;
75005;SDS011;63553;51.814;4.600;2023-09-12T06:30:19;29.80;;;15.23;;
75005;SDS011;63553;51.814;4.600;2023-09-12T06:32:45;33.35;;;17.00;;
75005;SDS011;63553;51.814;4.600;2023-09-12T06:35:10;36.08;;;19.15;;
75005;SDS011;63553;51.814;4.600;2023-09-12T06:37:39;35.92;;;17.25;;
75005;SDS011;63553;51.814;4.600;2023-09-12T06:40:05;21.85;;;12.18;;
75005;SDS011;63553;51.814;4.600;2023-09-12T06:42:31;39.90;;;18.95;;
75005;SDS011;63553;51.814;4.600;2023-09-12T06:44:57;37.15;;;18.75;;
75005;SDS011;63553;51.814;4.600;2023-09-12T06:47:22;34.77;;;18.37;;
75005;SDS011;63553;51.814;4.600;2023-09-12T06:49:47;38.20;;;19.50;;
75005;SDS011;63553;51.814;4.600;2023-09-12T06:52:13;32.80;;;17.07;;
75005;SDS011;63553;51.814;4.600;2023-09-12T06:54:38;28.92;;;16.52;;
75005;SDS011;63553;51.814;4.600;2023-09-12T06:57:03;32.97;;;18.92;;
75005;SDS011;63553;51.814;4.600;2023-09-12T06:59:29;12.88;;;7.97;;
75005;SDS011;63553;51.814;4.600;2023-09-12T07:01:54;13.35;;;7.72;;
75005;SDS011;63553;51.814;4.600;2023-09-12T07:04:20;12.27;;;8.52;;
75005;SDS011;63553;51.814;4.600;2023-09-12T07:06:46;15.93;;;9.30;;
75005;SDS011;63553;51.814;4.600;2023-09-12T07:09:11;28.38;;;17.02;;
75005;SDS011;63553;51.814;4.600;2023-09-12T07:11:39;32.17;;;19.08;;
75005;SDS011;63553;51.814;4.600;2023-09-12T07:14:05;31.73;;;19.33;;
75005;SDS011;63553;51.814;4.600;2023-09-12T07:16:30;34.13;;;19.47;;
75005;SDS011;63553;51.814;4.600;2023-09-12T07:18:56;30.23;;;17.75;;
75005;SDS011;63553;51.814;4.600;2023-09-12T07:21:22;31.02;;;18.65;;
75005;SDS011;63553;51.814;4.600;2023-09-12T07:23:47;34.65;;;18.35;;
75005;SDS011;63553;51.814;4.600;2023-09-12T07:26:13;14.23;;;9.23;;
75005;SDS011;63553;51.814;4.600;2023-09-12T07:28:39;13.27;;;8.73;;
75005;SDS011;63553;51.814;4.600;2023-09-12T07:31:05;16.90;;;11.68;;
75005;SDS011;63553;51.814;4.600;2023-09-12T07:33:31;20.85;;;10.88;;
75005;SDS011;63553;51.814;4.600;2023-09-12T07:35:56;16.85;;;11.05;;
75005;SDS011;63553;51.814;4.600;2023-09-12T07:38:22;25.45;;;15.07;;
75005;SDS011;63553;51.814;4.600;2023-09-12T07:40:47;15.60;;;10.35;;
75005;SDS011;63553;51.814;4.600;2023-09-12T07:43:13;16.40;;;10.50;;
75005;SDS011;63553;51.814;4.600;2023-09-12T07:45:39;18.23;;;11.02;;
75005;SDS011;63553;51.814;4.600;2023-09-12T07:48:08;15.30;;;10.30;;
75005;SDS011;63553;51.814;4.600;2023-09-12T07:50:36;17.00;;;11.02;;
75005;SDS011;63553;51.814;4.600;2023-09-12T07:53:04;24.02;;;14.90;;
75005;SDS011;63553;51.814;4.600;2023-09-12T07:55:30;22.27;;;13.48;;
75005;SDS011;63553;51.814;4.600;2023-09-12T07:57:59;19.05;;;13.38;;
75005;SDS011;63553;51.814;4.600;2023-09-12T08:00:25;26.08;;;17.08;;
75005;SDS011;63553;51.814;4.600;2023-09-12T08:02:50;28.92;;;17.50;;
75005;SDS011;63553;51.814;4.600;2023-09-12T08:05:15;31.45;;;18.80;;
75005;SDS011;63553;51.814;4.600;2023-09-12T08:07:41;28.77;;;17.40;;
75005;SDS011;63553;51.814;4.600;2023-09-12T08:10:06;20.98;;;14.55;;
75005;SDS011;63553;51.814;4.600;2023-09-12T08:12:32;30.08;;;19.20;;
75005;SDS011;63553;51.814;4.600;2023-09-12T08:14:57;30.95;;;19.08;;
75005;SDS011;63553;51.814;4.600;2023-09-12T08:17:24;20.83;;;14.80;;
75005;SDS011;63553;51.814;4.600;2023-09-12T08:19:49;31.02;;;18.38;;
75005;SDS011;63553;51.814;4.600;2023-09-12T08:22:14;32.13;;;19.83;;
75005;SDS011;63553;51.814;4.600;2023-09-12T08:24:40;30.08;;;20.10;;
75005;SDS011;63553;51.814;4.600;2023-09-12T08:27:05;33.72;;;21.15;;
75005;SDS011;63553;51.814;4.600;2023-09-12T08:29:32;33.03;;;21.73;;
75005;SDS011;63553;51.814;4.600;2023-09-12T08:31:58;26.35;;;17.60;;
75005;SDS011;63553;51.814;4.600;2023-09-12T08:34:24;25.17;;;16.13;;
75005;SDS011;63553;51.814;4.600;2023-09-12T08:36:50;19.95;;;12.82;;
75005;SDS011;63553;51.814;4.600;2023-09-12T08:39:17;17.40;;;12.30;;
75005;SDS011;63553;51.814;4.600;2023-09-12T08:41:48;34.95;;;21.63;;
75005;SDS011;63553;51.814;4.600;2023-09-12T08:44:14;36.70;;;22.38;;
75005;SDS011;63553;51.814;4.600;2023-09-12T08:46:43;20.48;;;13.52;;
75005;SDS011;63553;51.814;4.600;2023-09-12T08:49:09;19.33;;;14.23;;
75005;SDS011;63553;51.814;4.600;2023-09-12T08:51:39;21.42;;;14.95;;
75005;SDS011;63553;51.814;4.600;2023-09-12T08:54:04;20.95;;;14.60;;
75005;SDS011;63553;51.814;4.600;2023-09-12T08:56:32;20.90;;;15.13;;
75005;SDS011;63553;51.814;4.600;2023-09-12T08:58:59;20.33;;;15.00;;
75005;SDS011;63553;51.814;4.600;2023-09-12T09:01:26;27.25;;;18.05;;
75005;SDS011;63553;51.814;4.600;2023-09-12T09:03:54;37.95;;;25.02;;
75005;SDS011;63553;51.814;4.600;2023-09-12T09:06:21;26.65;;;18.20;;
75005;SDS011;63553;51.814;4.600;2023-09-12T09:08:47;23.20;;;14.90;;
75005;SDS011;63553;51.814;4.600;2023-09-12T09:11:14;30.80;;;20.20;;
75005;SDS011;63553;51.814;4.600;2023-09-12T09:13:39;39.75;;;24.23;;
75005;SDS011;63553;51.814;4.600;2023-09-12T09:16:11;38.47;;;23.50;;
75005;SDS011;63553;51.814;4.600;2023-09-12T09:18:54;39.67;;;23.70;;
75005;SDS011;63553;51.814;4.600;2023-09-12T09:21:26;35.05;;;21.65;;
75005;SDS011;63553;51.814;4.600;2023-09-12T09:24:07;43.88;;;23.52;;
75005;SDS011;63553;51.814;4.600;2023-09-12T09:26:43;36.03;;;22.95;;
75005;SDS011;63553;51.814;4.600;2023-09-12T09:29:09;23.38;;;16.38;;
75005;SDS011;63553;51.814;4.600;2023-09-12T09:31:40;27.27;;;18.58;;
75005;SDS011;63553;51.814;4.600;2023-09-12T09:34:13;20.92;;;14.88;;
75005;SDS011;63553;51.814;4.600;2023-09-12T09:36:49;22.90;;;15.63;;
75005;SDS011;63553;51.814;4.600;2023-09-12T09:39:19;21.08;;;14.95;;
75005;SDS011;63553;51.814;4.600;2023-09-12T09:41:53;28.58;;;18.30;;
75005;SDS011;63553;51.814;4.600;2023-09-12T09:44:23;36.90;;;21.27;;
75005;SDS011;63553;51.814;4.600;2023-09-12T09:46:54;21.98;;;15.80;;
75005;SDS011;63553;51.814;4.600;2023-09-12T09:49:20;21.40;;;14.73;;
75005;SDS011;63553;51.814;4.600;2023-09-12T09:51:46;32.58;;;19.77;;
75005;SDS011;63553;51.814;4.600;2023-09-12T09:54:12;21.55;;;16.05;;
75005;SDS011;63553;51.814;4.600;2023-09-12T09:56:46;22.10;;;14.90;;
75005;SDS011;63553;51.814;4.600;2023-09-12T09:59:15;24.33;;;16.15;;
75005;SDS011;63553;51.814;4.600;2023-09-12T10:01:43;27.13;;;17.20;;
75005;SDS011;63553;51.814;4.600;2023-09-12T10:04:09;23.88;;;15.98;;
75005;SDS011;63553;51.814;4.600;2023-09-12T10:06:35;23.77;;;15.60;;
75005;SDS011;63553;51.814;4.600;2023-09-12T10:09:03;23.88;;;16.60;;
75005;SDS011;63553;51.814;4.600;2023-09-12T10:11:35;24.95;;;16.08;;
75005;SDS011;63553;51.814;4.600;2023-09-12T10:14:03;23.88;;;16.13;;
75005;SDS011;63553;51.814;4.600;2023-09-12T10:16:30;23.58;;;16.30;;
75005;SDS011;63553;51.814;4.600;2023-09-12T10:24:37;24.35;;;15.88;;
75005;SDS011;63553;51.814;4.600;2023-09-12T10:27:04;22.23;;;15.68;;
75005;SDS011;63553;51.814;4.600;2023-09-12T10:29:31;26.77;;;16.95;;
75005;SDS011;63553;51.814;4.600;2023-09-12T10:31:56;22.52;;;15.48;;
75005;SDS011;63553;51.814;4.600;2023-09-12T10:34:22;23.80;;;16.55;;
75005;SDS011;63553;51.814;4.600;2023-09-12T10:36:50;26.48;;;17.52;;
75005;SDS011;63553;51.814;4.600;2023-09-12T10:39:16;27.10;;;16.30;;
75005;SDS011;63553;51.814;4.600;2023-09-12T10:41:44;23.95;;;16.33;;
75005;SDS011;63553;51.814;4.600;2023-09-12T10:44:14;24.20;;;15.00;;
75005;SDS011;63553;51.814;4.600;2023-09-12T10:46:41;33.95;;;22.02;;
75005;SDS011;63553;51.814;4.600;2023-09-12T10:49:08;22.35;;;15.57;;
75005;SDS011;63553;51.814;4.600;2023-09-12T10:51:45;24.27;;;16.00;;
75005;SDS011;63553;51.814;4.600;2023-09-12T10:56:38;22.85;;;14.63;;
75005;SDS011;63553;51.814;4.600;2023-09-12T11:01:33;20.20;;;15.25;;
75005;SDS011;63553;51.814;4.600;2023-09-12T11:06:43;24.83;;;16.55;;
75005;SDS011;63553;51.814;4.600;2023-09-12T11:11:48;38.08;;;22.33;;
75005;SDS011;63553;51.814;4.600;2023-09-12T11:14:19;30.20;;;18.02;;
75005;SDS011;63553;51.814;4.600;2023-09-12T11:19:53;25.80;;;17.17;;
75005;SDS011;63553;51.814;4.600;2023-09-12T11:22:27;21.58;;;15.50;;
75005;SDS011;63553;51.814;4.600;2023-09-12T11:24:56;21.55;;;14.43;;
75005;SDS011;63553;51.814;4.600;2023-09-12T11:27:22;22.40;;;15.45;;
75005;SDS011;63553;51.814;4.600;2023-09-12T11:29:49;21.02;;;14.57;;
75005;SDS011;63553;51.814;4.600;2023-09-12T11:32:30;21.20;;;15.27;;
75005;SDS011;63553;51.814;4.600;2023-09-12T11:34:56;24.80;;;15.20;;
75005;SDS011;63553;51.814;4.600;2023-09-12T11:37:22;21.23;;;14.45;;
75005;SDS011;63553;51.814;4.600;2023-09-12T11:39:49;21.20;;;14.82;;
75005;SDS011;63553;51.814;4.600;2023-09-12T11:42:16;18.30;;;13.93;;
75005;SDS011;63553;51.814;4.600;2023-09-12T11:44:41;20.77;;;14.40;;
75005;SDS011;63553;51.814;4.600;2023-09-12T11:47:10;30.48;;;18.88;;
75005;SDS011;63553;51.814;4.600;2023-09-12T11:49:37;25.02;;;16.65;;
75005;SDS011;63553;51.814;4.600;2023-09-12T11:52:07;18.88;;;13.75;;
75005;SDS011;63553;51.814;4.600;2023-09-12T11:54:33;23.70;;;16.05;;
75005;SDS011;63553;51.814;4.600;2023-09-12T11:56:59;19.33;;;14.00;;
75005;SDS011;63553;51.814;4.600;2023-09-12T11:59:26;19.25;;;13.90;;
75005;SDS011;63553;51.814;4.600;2023-09-12T12:01:52;28.42;;;17.35;;
75005;SDS011;63553;51.814;4.600;2023-09-12T12:04:22;26.70;;;17.33;;
75005;SDS011;63553;51.814;4.600;2023-09-12T12:06:50;18.88;;;13.23;;
75005;SDS011;63553;51.814;4.600;2023-09-12T12:09:16;18.83;;;13.23;;
75005;SDS011;63553;51.814;4.600;2023-09-12T12:11:46;17.38;;;12.60;;
75005;SDS011;63553;51.814;4.600;2023-09-12T12:14:13;15.90;;;11.95;;
75005;SDS011;63553;51.814;4.600;2023-09-12T12:16:40;14.80;;;11.57;;
75005;SDS011;63553;51.814;4.600;2023-09-12T12:19:09;17.80;;;12.57;;
75005;SDS011;63553;51.814;4.600;2023-09-12T12:21:36;15.05;;;11.68;;
75005;SDS011;63553;51.814;4.600;2023-09-12T12:24:03;19.05;;;13.65;;
75005;SDS011;63553;51.814;4.600;2023-09-12T12:26:32;18.27;;;12.32;;
75005;SDS011;63553;51.814;4.600;2023-09-12T12:29:02;23.05;;;14.07;;
75005;SDS011;63553;51.814;4.600;2023-09-12T12:31:29;28.23;;;18.17;;
75005;SDS011;63553;51.814;4.600;2023-09-12T12:33:54;16.80;;;13.23;;
75005;SDS011;63553;51.814;4.600;2023-09-12T12:36:20;20.45;;;13.30;;
75005;SDS011;63553;51.814;4.600;2023-09-12T12:38:47;19.55;;;14.45;;
75005;SDS011;63553;51.814;4.600;2023-09-12T12:41:13;27.88;;;18.88;;
75005;SDS011;63553;51.814;4.600;2023-09-12T12:43:40;20.75;;;15.57;;
75005;SDS011;63553;51.814;4.600;2023-09-12T12:46:09;18.98;;;13.82;;
75005;SDS011;63553;51.814;4.600;2023-09-12T12:48:37;20.48;;;14.57;;
75005;SDS011;63553;51.814;4.600;2023-09-12T12:54:04;20.90;;;13.98;;
75005;SDS011;63553;51.814;4.600;2023-09-12T12:56:31;20.50;;;14.25;;
75005;SDS011;63553;51.814;4.600;2023-09-12T12:58:57;27.88;;;16.58;;
75005;SDS011;63553;51.814;4.600;2023-09-12T13:01:25;23.38;;;14.73;;
75005;SDS011;63553;51.814;4.600;2023-09-12T13:03:50;17.63;;;12.45;;
75005;SDS011;63553;51.814;4.600;2023-09-12T13:06:17;18.42;;;13.40;;
75005;SDS011;63553;51.814;4.600;2023-09-12T13:08:43;19.05;;;13.10;;
75005;SDS011;63553;51.814;4.600;2023-09-12T13:11:09;16.08;;;12.82;;
75005;SDS011;63553;51.814;4.600;2023-09-12T13:13:36;18.05;;;13.52;;
75005;SDS011;63553;51.814;4.600;2023-09-12T13:16:06;18.95;;;13.25;;
75005;SDS011;63553;51.814;4.600;2023-09-12T13:18:34;21.13;;;15.02;;
75005;SDS011;63553;51.814;4.600;2023-09-12T13:21:00;17.52;;;13.45;;
75005;SDS011;63553;51.814;4.600;2023-09-12T13:23:26;20.35;;;14.30;;
75005;SDS011;63553;51.814;4.600;2023-09-12T13:25:53;16.40;;;12.95;;
75005;SDS011;63553;51.814;4.600;2023-09-12T13:28:18;24.98;;;17.02;;
75005;SDS011;63553;51.814;4.600;2023-09-12T13:30:44;20.20;;;15.02;;
75005;SDS011;63553;51.814;4.600;2023-09-12T13:33:10;18.63;;;13.43;;
75005;SDS011;63553;51.814;4.600;2023-09-12T13:35:40;18.25;;;11.82;;
75005;SDS011;63553;51.814;4.600;2023-09-12T13:38:06;16.67;;;12.57;;
75005;SDS011;63553;51.814;4.600;2023-09-12T13:40:37;13.65;;;11.27;;
75005;SDS011;63553;51.814;4.600;2023-09-12T13:43:07;18.33;;;11.68;;
75005;SDS011;63553;51.814;4.600;2023-09-12T13:45:33;15.73;;;11.30;;
75005;SDS011;63553;51.814;4.600;2023-09-12T13:47:59;16.50;;;10.80;;
75005;SDS011;63553;51.814;4.600;2023-09-12T13:50:25;16.52;;;11.35;;
75005;SDS011;63553;51.814;4.600;2023-09-12T13:52:53;15.48;;;10.20;;
75005;SDS011;63553;51.814;4.600;2023-09-12T13:55:19;12.90;;;9.80;;
75005;SDS011;63553;51.814;4.600;2023-09-12T13:57:45;12.07;;;8.90;;
75005;SDS011;63553;51.814;4.600;2023-09-12T14:00:10;12.23;;;8.50;;
75005;SDS011;63553;51.814;4.600;2023-09-12T14:02:35;10.57;;;7.15;;
75005;SDS011;63553;51.814;4.600;2023-09-12T14:05:01;8.30;;;6.70;;
75005;SDS011;63553;51.814;4.600;2023-09-12T14:07:26;8.82;;;6.32;;
75005;SDS011;63553;51.814;4.600;2023-09-12T14:09:52;12.35;;;7.43;;
75005;SDS011;63553;51.814;4.600;2023-09-12T14:12:20;9.90;;;6.30;;
75005;SDS011;63553;51.814;4.600;2023-09-12T14:14:47;8.43;;;6.07;;
75005;SDS011;63553;51.814;4.600;2023-09-12T14:17:13;10.25;;;6.53;;
75005;SDS011;63553;51.814;4.600;2023-09-12T14:19:38;9.02;;;6.63;;
75005;SDS011;63553;51.814;4.600;2023-09-12T14:22:04;9.20;;;6.50;;
75005;SDS011;63553;51.814;4.600;2023-09-12T14:24:29;9.98;;;6.55;;
75005;SDS011;63553;51.814;4.600;2023-09-12T14:26:54;8.63;;;5.87;;
75005;SDS011;63553;51.814;4.600;2023-09-12T14:29:20;10.97;;;6.67;;
75005;SDS011;63553;51.814;4.600;2023-09-12T14:31:45;6.33;;;5.50;;
75005;SDS011;63553;51.814;4.600;2023-09-12T14:36:41;8.00;;;6.05;;
75005;SDS011;63553;51.814;4.600;2023-09-12T14:39:06;7.95;;;5.65;;
75005;SDS011;63553;51.814;4.600;2023-09-12T14:41:32;8.18;;;5.60;;
75005;SDS011;63553;51.814;4.600;2023-09-12T14:43:57;8.30;;;5.90;;
75005;SDS011;63553;51.814;4.600;2023-09-12T14:46:23;8.82;;;6.35;;
75005;SDS011;63553;51.814;4.600;2023-09-12T14:48:48;8.48;;;5.65;;